GAP1024 RPLL-RPMZ
Flight info
| Callsign | GAP1024 |
|---|---|
| Flight time | N/A |
| Altitude | 35000 |
| Route | VERDE2R VERDE A461 TINDO TINDO1E |
| Aircraft | A321/M-SDE3FGHIRWY/LB1 |
Departure
| Time | 2026-05-08 05:08 |
|---|---|
| Airport | Ninoy Aquino International Airport (RPLL) |
Arrival
| Time | N/A |
|---|---|
| Airport | Zamboanga International Airport (RPMZ) |
| Time | Latitude | Longitude | Altitude | Speed | Heading |
|---|---|---|---|---|---|
| 2026-05-08 04:47 | 14.50882 | 121.01335 | 82 ft | 0 kts | 329° |
| 2026-05-08 04:53 | 14.50881 | 121.01336 | 82 ft | 1 kts | 329° |
| 2026-05-08 04:53 | 14.50868 | 121.01344 | 82 ft | 2 kts | 329° |
| 2026-05-08 04:53 | 14.50855 | 121.01352 | 82 ft | 2 kts | 329° |
| 2026-05-08 04:53 | 14.50842 | 121.01360 | 82 ft | 2 kts | 329° |
| 2026-05-08 04:54 | 14.50829 | 121.01367 | 82 ft | 2 kts | 329° |
| 2026-05-08 04:54 | 14.50816 | 121.01376 | 82 ft | 2 kts | 329° |
| 2026-05-08 04:54 | 14.50808 | 121.01380 | 82 ft | 2 kts | 329° |
| 2026-05-08 04:54 | 14.50799 | 121.01392 | 82 ft | 2 kts | 279° |
| 2026-05-08 04:55 | 14.50800 | 121.01406 | 82 ft | 0 kts | 244° |
| 2026-05-08 04:55 | 14.50804 | 121.01411 | 82 ft | 1 kts | 240° |
| 2026-05-08 04:55 | 14.50804 | 121.01413 | 82 ft | 0 kts | 240° |
| 2026-05-08 04:59 | 14.50802 | 121.01410 | 82 ft | 1 kts | 240° |
| 2026-05-08 04:59 | 14.50796 | 121.01398 | 82 ft | 2 kts | 240° |
| 2026-05-08 04:59 | 14.50784 | 121.01377 | 82 ft | 3 kts | 240° |
| 2026-05-08 05:00 | 14.50769 | 121.01350 | 82 ft | 4 kts | 240° |
| 2026-05-08 05:00 | 14.50747 | 121.01318 | 82 ft | 6 kts | 224° |
| 2026-05-08 05:00 | 14.50704 | 121.01309 | 82 ft | 7 kts | 174° |
| 2026-05-08 05:00 | 14.50657 | 121.01294 | 82 ft | 7 kts | 230° |
| 2026-05-08 05:01 | 14.50627 | 121.01242 | 82 ft | 8 kts | 239° |
| 2026-05-08 05:01 | 14.50593 | 121.01184 | 82 ft | 10 kts | 241° |
| 2026-05-08 05:01 | 14.50557 | 121.01118 | 82 ft | 10 kts | 240° |
| 2026-05-08 05:01 | 14.50518 | 121.01048 | 82 ft | 11 kts | 240° |
| 2026-05-08 05:02 | 14.50475 | 121.00971 | 82 ft | 12 kts | 240° |
| 2026-05-08 05:02 | 14.50431 | 121.00892 | 82 ft | 13 kts | 240° |
| 2026-05-08 05:02 | 14.50380 | 121.00802 | 82 ft | 13 kts | 240° |
| 2026-05-08 05:02 | 14.50331 | 121.00713 | 82 ft | 14 kts | 240° |
| 2026-05-08 05:03 | 14.50280 | 121.00620 | 82 ft | 15 kts | 240° |
| 2026-05-08 05:03 | 14.50228 | 121.00526 | 82 ft | 15 kts | 240° |
| 2026-05-08 05:03 | 14.50174 | 121.00427 | 82 ft | 15 kts | 240° |
| 2026-05-08 05:03 | 14.50119 | 121.00328 | 82 ft | 16 kts | 240° |
| 2026-05-08 05:04 | 14.50061 | 121.00226 | 82 ft | 16 kts | 240° |
| 2026-05-08 05:04 | 14.50005 | 121.00123 | 82 ft | 16 kts | 240° |
| 2026-05-08 05:04 | 14.49958 | 121.00038 | 82 ft | 7 kts | 240° |
| 2026-05-08 05:04 | 14.49946 | 121.00017 | 82 ft | 0 kts | 240° |
| 2026-05-08 05:05 | 14.49943 | 121.00013 | 82 ft | 1 kts | 240° |
| 2026-05-08 05:05 | 14.49936 | 121.00000 | 82 ft | 2 kts | 239° |
| 2026-05-08 05:05 | 14.49923 | 120.99979 | 82 ft | 4 kts | 231° |
| 2026-05-08 05:05 | 14.49896 | 120.99960 | 82 ft | 4 kts | 193° |
| 2026-05-08 05:06 | 14.49885 | 120.99963 | 82 ft | 0 kts | 159° |
| 2026-05-08 05:06 | 14.49875 | 120.99966 | 82 ft | 2 kts | 153° |
| 2026-05-08 05:06 | 14.49869 | 120.99970 | 82 ft | 1 kts | 150° |
| 2026-05-08 05:06 | 14.49856 | 120.99978 | 82 ft | 3 kts | 149° |
| 2026-05-08 05:07 | 14.49832 | 120.99992 | 82 ft | 4 kts | 148° |
| 2026-05-08 05:07 | 14.49806 | 121.00021 | 82 ft | 6 kts | 114° |
| 2026-05-08 05:07 | 14.49813 | 121.00071 | 82 ft | 8 kts | 60° |
| 2026-05-08 05:07 | 14.49841 | 121.00119 | 82 ft | 7 kts | 61° |
| 2026-05-08 05:08 | 14.49894 | 121.00217 | 82 ft | 43 kts | 60° |
| 2026-05-08 05:08 | 14.50196 | 121.00755 | 82 ft | 125 kts | 60° |
| 2026-05-08 05:08 | 14.50747 | 121.01714 | 241 ft | 174 kts | 61° |
| 2026-05-08 05:08 | 14.51386 | 121.02784 | 942 ft | 181 kts | 59° |
| 2026-05-08 05:09 | 14.52040 | 121.03877 | 1847 ft | 180 kts | 62° |
| 2026-05-08 05:09 | 14.52621 | 121.04951 | 2480 ft | 173 kts | 63° |
| 2026-05-08 05:09 | 14.53210 | 121.06086 | 2753 ft | 186 kts | 65° |
| 2026-05-08 05:09 | 14.53472 | 121.07409 | 2990 ft | 200 kts | 99° |
| 2026-05-08 05:10 | 14.52700 | 121.08642 | 3231 ft | 219 kts | 141° |
| 2026-05-08 05:10 | 14.49380 | 121.08906 | 3746 ft | 263 kts | 183° |
| 2026-05-08 05:10 | 14.47526 | 121.08717 | 4118 ft | 276 kts | 182° |
| 2026-05-08 05:11 | 14.45577 | 121.08550 | 4731 ft | 279 kts | 182° |
| 2026-05-08 05:11 | 14.43611 | 121.08405 | 5413 ft | 281 kts | 181° |
| 2026-05-08 05:11 | 14.41665 | 121.08276 | 6062 ft | 283 kts | 181° |
| 2026-05-08 05:11 | 14.39671 | 121.08152 | 6699 ft | 286 kts | 181° |
| 2026-05-08 05:12 | 14.37668 | 121.08034 | 7290 ft | 289 kts | 181° |
| 2026-05-08 05:12 | 14.35656 | 121.07918 | 7889 ft | 292 kts | 181° |
| 2026-05-08 05:12 | 14.33595 | 121.07802 | 8507 ft | 296 kts | 181° |
| 2026-05-08 05:12 | 14.31546 | 121.07687 | 9111 ft | 299 kts | 181° |
| 2026-05-08 05:13 | 14.29445 | 121.07569 | 9712 ft | 302 kts | 181° |
| 2026-05-08 05:13 | 14.27332 | 121.07452 | 10274 ft | 305 kts | 181° |
| 2026-05-08 05:13 | 14.25140 | 121.07331 | 10584 ft | 319 kts | 181° |
| 2026-05-08 05:13 | 14.22841 | 121.07205 | 10845 ft | 334 kts | 181° |
| 2026-05-08 05:14 | 14.20439 | 121.07072 | 11165 ft | 345 kts | 181° |
| 2026-05-08 05:14 | 14.18002 | 121.06936 | 11674 ft | 350 kts | 181° |
| 2026-05-08 05:14 | 14.15561 | 121.06800 | 12223 ft | 352 kts | 182° |
| 2026-05-08 05:14 | 14.13078 | 121.06662 | 12769 ft | 355 kts | 182° |
| 2026-05-08 05:15 | 14.10632 | 121.06525 | 13267 ft | 357 kts | 182° |
| 2026-05-08 05:15 | 14.08130 | 121.06385 | 13770 ft | 360 kts | 182° |
| 2026-05-08 05:15 | 14.05603 | 121.06243 | 14255 ft | 362 kts | 181° |
| 2026-05-08 05:15 | 14.03094 | 121.06103 | 14722 ft | 364 kts | 181° |
| 2026-05-08 05:16 | 14.00552 | 121.05961 | 15195 ft | 367 kts | 181° |
| 2026-05-08 05:16 | 13.97981 | 121.05817 | 15645 ft | 369 kts | 181° |
| 2026-05-08 05:16 | 13.95386 | 121.05674 | 16086 ft | 372 kts | 181° |
| 2026-05-08 05:16 | 13.92797 | 121.05531 | 16504 ft | 374 kts | 181° |
| 2026-05-08 05:17 | 13.90176 | 121.05386 | 16925 ft | 376 kts | 181° |
| 2026-05-08 05:17 | 13.87540 | 121.05241 | 17338 ft | 379 kts | 181° |
| 2026-05-08 05:17 | 13.84891 | 121.05096 | 17747 ft | 381 kts | 181° |
| 2026-05-08 05:17 | 13.82253 | 121.04951 | 18154 ft | 383 kts | 181° |
| 2026-05-08 05:18 | 13.79574 | 121.04804 | 18559 ft | 385 kts | 181° |
| 2026-05-08 05:18 | 13.76880 | 121.04655 | 18954 ft | 387 kts | 181° |
| 2026-05-08 05:18 | 13.74176 | 121.04504 | 19307 ft | 390 kts | 181° |
| 2026-05-08 05:18 | 13.71445 | 121.04354 | 19697 ft | 392 kts | 181° |
| 2026-05-08 05:19 | 13.68710 | 121.04203 | 20090 ft | 394 kts | 181° |
| 2026-05-08 05:19 | 13.65965 | 121.04050 | 20457 ft | 396 kts | 181° |
| 2026-05-08 05:19 | 13.63185 | 121.03897 | 20825 ft | 399 kts | 181° |
| 2026-05-08 05:19 | 13.60421 | 121.03745 | 21199 ft | 401 kts | 182° |
| 2026-05-08 05:20 | 13.57619 | 121.03590 | 21563 ft | 403 kts | 182° |
| 2026-05-08 05:20 | 13.54787 | 121.03432 | 21916 ft | 405 kts | 182° |
| 2026-05-08 05:20 | 13.51945 | 121.03277 | 22259 ft | 407 kts | 182° |
| 2026-05-08 05:20 | 13.49126 | 121.03201 | 22605 ft | 409 kts | 179° |
| 2026-05-08 05:21 | 13.46246 | 121.03220 | 22966 ft | 411 kts | 178° |
| 2026-05-08 05:21 | 13.43381 | 121.03250 | 23318 ft | 413 kts | 178° |
| 2026-05-08 05:21 | 13.40515 | 121.03281 | 23667 ft | 414 kts | 178° |
| 2026-05-08 05:21 | 13.37585 | 121.03311 | 24012 ft | 416 kts | 178° |
| 2026-05-08 05:22 | 13.34690 | 121.03342 | 24352 ft | 418 kts | 178° |
| 2026-05-08 05:22 | 13.31782 | 121.03371 | 24695 ft | 419 kts | 178° |
| 2026-05-08 05:22 | 13.28835 | 121.03401 | 25035 ft | 421 kts | 179° |
| 2026-05-08 05:22 | 13.25920 | 121.03430 | 25366 ft | 422 kts | 178° |
| 2026-05-08 05:23 | 13.22965 | 121.03459 | 25687 ft | 424 kts | 179° |
| 2026-05-08 05:23 | 13.20014 | 121.03488 | 26001 ft | 426 kts | 179° |
| 2026-05-08 05:23 | 13.17009 | 121.03517 | 26312 ft | 428 kts | 179° |
| 2026-05-08 05:23 | 13.14039 | 121.03547 | 26624 ft | 430 kts | 179° |
| 2026-05-08 05:24 | 13.11040 | 121.03576 | 26930 ft | 431 kts | 179° |
| 2026-05-08 05:24 | 13.08002 | 121.03605 | 27227 ft | 433 kts | 179° |
| 2026-05-08 05:24 | 13.04960 | 121.03635 | 27522 ft | 435 kts | 179° |
| 2026-05-08 05:24 | 13.01922 | 121.03665 | 27813 ft | 437 kts | 179° |
| 2026-05-08 05:25 | 12.98890 | 121.03696 | 28099 ft | 438 kts | 179° |
| 2026-05-08 05:25 | 12.95807 | 121.03726 | 28398 ft | 440 kts | 179° |
| 2026-05-08 05:25 | 12.92756 | 121.03756 | 28694 ft | 441 kts | 179° |
| 2026-05-08 05:25 | 12.89660 | 121.03787 | 28975 ft | 442 kts | 179° |
| 2026-05-08 05:26 | 12.86589 | 121.03818 | 29236 ft | 443 kts | 179° |
| 2026-05-08 05:26 | 12.83489 | 121.03849 | 29489 ft | 445 kts | 179° |
| 2026-05-08 05:26 | 12.80360 | 121.03880 | 29710 ft | 447 kts | 179° |
| 2026-05-08 05:26 | 12.77215 | 121.03912 | 29940 ft | 449 kts | 179° |
| 2026-05-08 05:27 | 12.74095 | 121.03942 | 30205 ft | 449 kts | 179° |
| 2026-05-08 05:27 | 12.70972 | 121.03973 | 30478 ft | 450 kts | 179° |
| 2026-05-08 05:27 | 12.67835 | 121.04005 | 30774 ft | 449 kts | 180° |
| 2026-05-08 05:27 | 12.64694 | 121.04037 | 31095 ft | 448 kts | 180° |
| 2026-05-08 05:28 | 12.61573 | 121.04068 | 31405 ft | 447 kts | 180° |
| 2026-05-08 05:28 | 12.58465 | 121.04098 | 31689 ft | 447 kts | 180° |
| 2026-05-08 05:28 | 12.55339 | 121.04130 | 31979 ft | 447 kts | 180° |
| 2026-05-08 05:28 | 12.52249 | 121.04159 | 32271 ft | 446 kts | 181° |
| 2026-05-08 05:29 | 12.49135 | 121.04190 | 32568 ft | 445 kts | 181° |
| 2026-05-08 05:29 | 12.46029 | 121.04220 | 32910 ft | 444 kts | 181° |
| 2026-05-08 05:29 | 12.42967 | 121.04249 | 33249 ft | 443 kts | 181° |
| 2026-05-08 05:29 | 12.39862 | 121.04287 | 33536 ft | 443 kts | 180° |
| 2026-05-08 05:30 | 12.36721 | 121.04459 | 33811 ft | 444 kts | 177° |
| 2026-05-08 05:30 | 12.33653 | 121.04806 | 34078 ft | 446 kts | 174° |
| 2026-05-08 05:30 | 12.30567 | 121.05330 | 34347 ft | 447 kts | 171° |
| 2026-05-08 05:30 | 12.27527 | 121.05902 | 34605 ft | 447 kts | 171° |
| 2026-05-08 05:31 | 12.24428 | 121.06493 | 34831 ft | 448 kts | 171° |
| 2026-05-08 05:31 | 12.18253 | 121.07667 | 34842 ft | 448 kts | 171° |
| 2026-05-08 05:32 | 12.12140 | 121.08825 | 34839 ft | 447 kts | 171° |
| 2026-05-08 05:32 | 12.06002 | 121.09987 | 34842 ft | 447 kts | 171° |
| 2026-05-08 05:33 | 11.99853 | 121.11150 | 34833 ft | 447 kts | 171° |
| 2026-05-08 05:33 | 11.93743 | 121.12303 | 34832 ft | 446 kts | 172° |
| 2026-05-08 05:34 | 11.87615 | 121.13461 | 34832 ft | 446 kts | 172° |
| 2026-05-08 05:34 | 11.81499 | 121.14614 | 34826 ft | 446 kts | 172° |
| 2026-05-08 05:35 | 11.75397 | 121.15765 | 34820 ft | 446 kts | 171° |
| 2026-05-08 05:35 | 11.69249 | 121.16924 | 34814 ft | 447 kts | 172° |
| 2026-05-08 05:36 | 11.63120 | 121.18080 | 34813 ft | 447 kts | 171° |
| 2026-05-08 05:36 | 11.56974 | 121.19237 | 34814 ft | 447 kts | 171° |
| 2026-05-08 05:37 | 11.50854 | 121.20390 | 34815 ft | 447 kts | 172° |
| 2026-05-08 05:37 | 11.44680 | 121.21553 | 34814 ft | 446 kts | 171° |
| 2026-05-08 05:38 | 11.38566 | 121.22704 | 34814 ft | 446 kts | 171° |
| 2026-05-08 05:38 | 11.32459 | 121.23852 | 34811 ft | 446 kts | 171° |
| 2026-05-08 05:39 | 11.26320 | 121.25005 | 34811 ft | 447 kts | 171° |
| 2026-05-08 05:39 | 11.20178 | 121.26160 | 34809 ft | 447 kts | 171° |
| 2026-05-08 05:40 | 11.14030 | 121.27316 | 34810 ft | 447 kts | 172° |
| 2026-05-08 05:40 | 11.07919 | 121.28464 | 34808 ft | 447 kts | 172° |
| 2026-05-08 05:41 | 11.01799 | 121.29614 | 34810 ft | 446 kts | 171° |
| 2026-05-08 05:41 | 10.95690 | 121.30769 | 34800 ft | 446 kts | 171° |
| 2026-05-08 05:42 | 10.89557 | 121.31943 | 34795 ft | 446 kts | 171° |
| 2026-05-08 05:42 | 10.83441 | 121.33113 | 34790 ft | 446 kts | 171° |
| 2026-05-08 05:43 | 10.77318 | 121.34283 | 34789 ft | 446 kts | 171° |
| 2026-05-08 05:43 | 10.71190 | 121.35456 | 34789 ft | 446 kts | 171° |
| 2026-05-08 05:44 | 10.65063 | 121.36628 | 34789 ft | 446 kts | 171° |
| 2026-05-08 05:44 | 10.58960 | 121.37794 | 34785 ft | 446 kts | 171° |
| 2026-05-08 05:45 | 10.52823 | 121.38966 | 34787 ft | 446 kts | 171° |
| 2026-05-08 05:45 | 10.46707 | 121.40115 | 34787 ft | 446 kts | 171° |
| 2026-05-08 05:46 | 10.40602 | 121.41248 | 34784 ft | 445 kts | 171° |
| 2026-05-08 05:46 | 10.34501 | 121.42384 | 34782 ft | 445 kts | 171° |
| 2026-05-08 05:47 | 10.28390 | 121.43522 | 34784 ft | 445 kts | 171° |
| 2026-05-08 05:47 | 10.22276 | 121.44662 | 34785 ft | 445 kts | 171° |
| 2026-05-08 05:48 | 10.16178 | 121.45798 | 34792 ft | 446 kts | 171° |
| 2026-05-08 05:48 | 10.10063 | 121.46938 | 34796 ft | 445 kts | 171° |
| 2026-05-08 05:49 | 10.03952 | 121.48074 | 34800 ft | 445 kts | 171° |
| 2026-05-08 05:49 | 9.97839 | 121.49213 | 34799 ft | 445 kts | 171° |
| 2026-05-08 05:50 | 9.91765 | 121.50345 | 34796 ft | 444 kts | 171° |
| 2026-05-08 05:50 | 9.85650 | 121.51482 | 34795 ft | 444 kts | 171° |
| 2026-05-08 05:51 | 9.79589 | 121.52607 | 34794 ft | 445 kts | 171° |
| 2026-05-08 05:51 | 9.78558 | 121.52799 | 34794 ft | 445 kts | 171° |